Terminal Aerodrome Forecast
Issued by NWS

Home | Current Version | Previous Version | Text Only | Print | Product List | Glossary Off
Versions: 1 2 3 4 5 6 7 8 9 10 11 12 13 14 15 16 17 18 19 20 21 22

000
FTUS43 KOAX 272000 AAA
TAFCDR
TAF AMD
KCDR 272033Z 2721/2818 06015G25KT 1SM TSRA BKN025CB
      TEMPO 2721/2724 1/4SM +TSRA OVC015CB
     FM280300 30005KT P6SM VCSH BKN040 OVC100=

USA.gov is the U.S. government's official web portal to all federal, state and local government web resources and services.